< < Back
Terminal Aerodrome Forecast


Current Version              Previous Versions:   1  2  3  4  5  6  7  8  9  

Terminal Aerodrome Forecast

596
FTUS42 KFFC 232300
TAFAHN
TAF
KAHN 232335Z 2400/2424 VRB03KT P6SM SKC
     FM240700 05005KT P6SM SKC
     FM241400 10008KT P6SM SKC
     FM241800 13008KT P6SM FEW040
     FM242100 16007KT P6SM SCT060=



Latest METAR

269
SAUS70 KWBC 240400
MTRAHN
METAR KAHN 240351Z AUTO 00000KT 10SM CLR 15/04 A2994 RMK AO2 SLP133
T01500044


USA.gov is the U.S. government's official web portal to all federal, state and local government web resources and services.